Latest Weather Observations for Fawkner Beacon

IDV60801

Issued at 3:35 pm EDT Friday 31 October 2014 (issued every 30 minutes, with the page automatically refreshed every 10 minutes)

About weather observations | Map of weather stations | Latest weather observations for VIC | Other Formats
Station Details ID: 086376 Name: FAWKNER BEACON Lat: -37.91 Lon: 144.93 Height: 17.0 m
Data from the previous 72 hours. | See also: Recent months for locations in Victoria
Date/Time
EDT
Temp
°C
App
Temp
°C
Dew
Point
Rel
Hum
%
Delta-T
°C
Wind Press
QNH
hPa
Press
MSL
hPa
Rain
since 9 am
mm
Dir
 
Spd
km/h
Gust
km/h
Spd
kts
Gust
kts
31/03:30pm - - - - - NNW 32 43 17 23 - - -
31/03:00pm - - - - - NNW 32 41 17 22 - - -
31/02:30pm - - - - - N 35 43 19 23 - - -
31/02:00pm - - - - - N 35 44 19 24 - - -
31/01:30pm - - - - - N 35 43 19 23 - - -
31/01:00pm - - - - - N 43 46 23 25 - - -
31/12:30pm - - - - - N 37 43 20 23 - - -
31/12:00pm - - - - - N 33 39 18 21 - - -
31/11:49am - - - - - N 32 33 17 18 - - -
31/11:30am - - - - - N 9 13 5 7 - - -
31/11:00am - - - - - N 20 24 11 13 - - -
31/10:30am - - - - - N 22 24 12 13 - - -
31/10:00am - - - - - N 17 22 9 12 - - -
31/09:30am - - - - - N 17 20 9 11 - - -
31/09:00am - - - - - N 15 20 8 11 - - -
31/08:30am - - - - - N 13 17 7 9 - - -
31/08:00am - - - - - N 11 13 6 7 - - -
31/07:30am - - - - - N 13 15 7 8 - - -
31/07:00am - - - - - N 13 15 7 8 - - -
31/06:30am - - - - - N 11 13 6 7 - - -
31/06:00am - - - - - N 13 15 7 8 - - -
31/05:30am - - - - - N 13 17 7 9 - - -
31/05:00am - - - - - N 19 22 10 12 - - -
31/04:30am - - - - - NNE 13 17 7 9 - - -
31/04:00am - - - - - NNE 11 13 6 7 - - -
31/03:30am - - - - - NNE 13 17 7 9 - - -
31/03:00am - - - - - NE 13 17 7 9 - - -
31/02:30am - - - - - NE 13 15 7 8 - - -
31/02:00am - - - - - ENE 9 13 5 7 - - -
31/01:30am - - - - - ENE 11 15 6 8 - - -
31/01:00am - - - - - ENE 11 15 6 8 - - -
31/12:30am - - - - - E 15 20 8 11 - - -
31/12:00am - - - - - E 17 22 9 12 - - -
 
Date/Time
EDT
Temp
°C
App
Temp
°C
Dew
Point
Rel
Hum
%
Delta-T
°C
Wind Press
QNH
hPa
Press
MSL
hPa
Rain
since 9 am
mm
Dir
 
Spd
km/h
Gust
km/h
Spd
kts
Gust
kts
30/11:30pm - - - - - E 17 22 9 12 - - -
30/11:00pm - - - - - ESE 19 24 10 13 - - -
30/10:30pm - - - - - ESE 20 24 11 13 - - -
30/10:00pm - - - - - ESE 22 26 12 14 - - -
30/09:30pm - - - - - ESE 24 26 13 14 - - -
30/09:00pm - - - - - SE 26 30 14 16 - - -
30/08:30pm - - - - - SE 28 30 15 16 - - -
30/08:00pm - - - - - SSE 28 32 15 17 - - -
30/07:30pm - - - - - S 28 32 15 17 - - -
30/07:00pm - - - - - S 24 28 13 15 - - -
30/06:30pm - - - - - SSE 22 28 12 15 - - -
30/06:00pm - - - - - SE 19 22 10 12 - - -
30/05:30pm - - - - - SE 22 26 12 14 - - -
30/05:00pm - - - - - SE 24 26 13 14 - - -
30/04:30pm - - - - - SE 24 28 13 15 - - -
30/04:00pm - - - - - SE 24 26 13 14 - - -
30/03:30pm - - - - - SE 20 24 11 13 - - -
30/03:00pm - - - - - ESE 15 17 8 9 - - -
30/02:30pm - - - - - ESE 11 13 6 7 - - -
30/02:00pm - - - - - ESE 9 11 5 6 - - -
30/01:30pm - - - - - ESE 11 15 6 8 - - -
30/01:00pm - - - - - ESE 11 15 6 8 - - -
30/12:30pm - - - - - SE 9 13 5 7 - - -
30/12:00pm - - - - - S 9 11 5 6 - - -
30/11:30am - - - - - S 9 13 5 7 - - -
30/11:00am - - - - - S 11 15 6 8 - - -
30/10:30am - - - - - SSW 19 24 10 13 - - -
30/10:00am - - - - - SW 22 26 12 14 - - -
30/09:30am - - - - - WSW 17 22 9 12 - - -
30/09:00am - - - - - WSW 19 22 10 12 - - -
30/08:30am - - - - - WSW 24 26 13 14 - - -
30/08:00am - - - - - SW 30 33 16 18 - - -
30/07:30am - - - - - W 20 22 11 12 - - -
30/07:00am - - - - - WSW 20 24 11 13 - - -
30/06:30am - - - - - W 17 22 9 12 - - -
30/06:00am - - - - - W 20 26 11 14 - - -
30/05:30am - - - - - WSW 19 24 10 13 - - -
30/05:00am - - - - - WSW 19 22 10 12 - - -
30/04:30am - - - - - W 15 20 8 11 - - -
30/04:00am - - - - - W 11 13 6 7 - - -
30/03:30am - - - - - W 11 17 6 9 - - -
30/03:00am - - - - - W 11 13 6 7 - - -
30/02:30am - - - - - W 9 13 5 7 - - -
30/02:00am - - - - - WNW 9 11 5 6 - - -
30/01:30am - - - - - N 6 9 3 5 - - -
30/01:00am - - - - - NNE 9 11 5 6 - - -
30/12:30am - - - - - NNE 7 9 4 5 - - -
30/12:00am - - - - - NE 9 11 5 6 - - -
 
Date/Time
EDT
Temp
°C
App
Temp
°C
Dew
Point
Rel
Hum
%
Delta-T
°C
Wind Press
QNH
hPa
Press
MSL
hPa
Rain
since 9 am
mm
Dir
 
Spd
km/h
Gust
km/h
Spd
kts
Gust
kts
29/11:30pm - - - - - ENE 9 13 5 7 - - -
29/11:00pm - - - - - ENE 13 17 7 9 - - -
29/10:30pm - - - - - ESE 19 22 10 12 - - -
29/10:00pm - - - - - ESE 20 24 11 13 - - -
29/09:30pm - - - - - ESE 22 26 12 14 - - -
29/09:00pm - - - - - SE 24 26 13 14 - - -
29/08:30pm - - - - - S 26 30 14 16 - - -
29/08:00pm - - - - - SSE 26 30 14 16 - - -
29/07:30pm - - - - - SSE 28 32 15 17 - - -
29/07:00pm - - - - - SSE 28 32 15 17 - - -
29/06:30pm - - - - - SSE 28 32 15 17 - - -
29/06:00pm - - - - - SSE 28 32 15 17 - - -
29/05:30pm - - - - - ESE 13 15 7 8 - - -
29/05:00pm - - - - - SE 13 13 7 7 - - -
29/04:30pm - - - - - SE 13 15 7 8 - - -
29/04:00pm - - - - - SE 13 15 7 8 - - -
29/03:30pm - - - - - SE 15 17 8 9 - - -
29/03:00pm - - - - - SE 13 17 7 9 - - -
29/02:30pm - - - - - ESE 15 20 8 11 - - -
29/02:00pm - - - - - E 13 15 7 8 - - -
29/01:30pm - - - - - SE 9 11 5 6 - - -
29/01:00pm - - - - - S 7 9 4 5 - - -
29/12:30pm - - - - - S 11 15 6 8 - - -
29/12:00pm - - - - - WSW 11 15 6 8 - - -
29/11:30am - - - - - W 9 13 5 7 - - -
29/11:00am - - - - - WNW 6 7 3 4 - - -
29/10:30am - - - - - W 9 13 5 7 - - -
29/10:00am - - - - - W 13 17 7 9 - - -
29/09:30am - - - - - W 15 20 8 11 - - -
29/09:00am - - - - - WNW 15 20 8 11 - - -
29/08:30am - - - - - W 17 22 9 12 - - -
29/08:00am - - - - - W 17 20 9 11 - - -
29/07:30am - - - - - WNW 20 24 11 13 - - -
29/07:00am - - - - - WNW 20 24 11 13 - - -
29/06:30am - - - - - W 20 24 11 13 - - -
29/06:00am - - - - - W 17 22 9 12 - - -
29/05:30am - - - - - WSW 20 24 11 13 - - -
29/05:00am - - - - - W 17 24 9 13 - - -
29/04:30am - - - - - W 22 28 12 15 - - -
29/04:00am - - - - - W 26 30 14 16 - - -
29/03:30am - - - - - W 26 33 14 18 - - -
29/03:00am - - - - - W 24 28 13 15 - - -
29/02:30am - - - - - WSW 28 32 15 17 - - -
29/02:00am - - - - - WSW 24 30 13 16 - - -
29/01:30am - - - - - WSW 22 26 12 14 - - -
29/01:00am - - - - - SW 24 30 13 16 - - -
29/12:30am - - - - - SW 28 33 15 18 - - -
29/12:00am - - - - - WSW 24 32 13 17 - - -
 
Date/Time
EDT
Temp
°C
App
Temp
°C
Dew
Point
Rel
Hum
%
Delta-T
°C
Wind Press
QNH
hPa
Press
MSL
hPa
Rain
since 9 am
mm
Dir
 
Spd
km/h
Gust
km/h
Spd
kts
Gust
kts
28/11:30pm - - - - - SW 30 35 16 19 - - -
28/11:00pm - - - - - SW 35 41 19 22 - - -
28/10:30pm - - - - - SW 35 44 19 24 - - -
28/10:00pm - - - - - SW 41 46 22 25 - - -
28/09:30pm - - - - - SW 33 44 18 24 - - -
28/09:00pm - - - - - SSW 35 41 19 22 - - -
28/08:30pm - - - - - SSW 43 52 23 28 - - -
28/08:00pm - - - - - SW 39 50 21 27 - - -
28/07:30pm - - - - - SSW 43 48 23 26 - - -
28/07:00pm - - - - - SW 43 50 23 27 - - -
28/06:30pm - - - - - SW 39 46 21 25 - - -
28/06:00pm - - - - - SW 39 46 21 25 - - -
28/05:30pm - - - - - SW 39 46 21 25 - - -
28/05:00pm - - - - - SSW 37 44 20 24 - - -
28/04:30pm - - - - - SSW 35 44 19 24 - - -
28/04:20pm - - - - - SW 35 43 19 23 - - -
28/04:00pm - - - - - SW 56 67 30 36 - - -
28/03:51pm - - - - - SW 50 65 27 35 - - -

Other Formats:

Comma delimited format used in spreadsheet applications
http://www.bom.gov.au/fwo/IDV60801/IDV60801.95872.axf

JavaScript Object Notation format (JSON) in row-major order
http://www.bom.gov.au/fwo/IDV60801/IDV60801.95872.json